sensor_id;sensor_type;location;lat;lon;timestamp;P1;durP1;ratioP1;P2;durP2;ratioP2
72095;SDS011;59968;51.084;16.748;2022-10-01T00:02:08;23.10;;;12.40;;
72095;SDS011;59968;51.084;16.748;2022-10-01T00:04:37;22.00;;;12.60;;
72095;SDS011;59968;51.084;16.748;2022-10-01T00:07:06;22.80;;;12.30;;
72095;SDS011;59968;51.084;16.748;2022-10-01T00:09:42;20.50;;;11.90;;
72095;SDS011;59968;51.084;16.748;2022-10-01T00:12:11;22.00;;;11.80;;
72095;SDS011;59968;51.084;16.748;2022-10-01T00:14:43;22.80;;;13.00;;
72095;SDS011;59968;51.084;16.748;2022-10-01T00:17:21;23.10;;;12.20;;
72095;SDS011;59968;51.084;16.748;2022-10-01T00:19:49;22.40;;;11.70;;
72095;SDS011;59968;51.084;16.748;2022-10-01T00:22:17;20.80;;;11.40;;
72095;SDS011;59968;51.084;16.748;2022-10-01T00:24:46;23.70;;;12.90;;
72095;SDS011;59968;51.084;16.748;2022-10-01T00:27:15;21.40;;;13.00;;
72095;SDS011;59968;51.084;16.748;2022-10-01T00:29:45;20.70;;;11.40;;
72095;SDS011;59968;51.084;16.748;2022-10-01T00:32:13;22.40;;;12.30;;
72095;SDS011;59968;51.084;16.748;2022-10-01T00:34:42;21.80;;;12.20;;
72095;SDS011;59968;51.084;16.748;2022-10-01T00:37:11;19.50;;;11.10;;
72095;SDS011;59968;51.084;16.748;2022-10-01T00:39:39;23.50;;;12.60;;
72095;SDS011;59968;51.084;16.748;2022-10-01T00:42:15;25.30;;;13.00;;
72095;SDS011;59968;51.084;16.748;2022-10-01T00:44:45;21.60;;;12.40;;
72095;SDS011;59968;51.084;16.748;2022-10-01T00:47:28;23.60;;;12.50;;
72095;SDS011;59968;51.084;16.748;2022-10-01T00:52:56;21.40;;;11.70;;
72095;SDS011;59968;51.084;16.748;2022-10-01T00:55:29;22.40;;;12.60;;
72095;SDS011;59968;51.084;16.748;2022-10-01T00:58:01;23.60;;;12.50;;
72095;SDS011;59968;51.084;16.748;2022-10-01T01:00:32;25.10;;;13.60;;
72095;SDS011;59968;51.084;16.748;2022-10-01T01:03:02;19.50;;;10.90;;
72095;SDS011;59968;51.084;16.748;2022-10-01T01:05:32;23.10;;;12.80;;
72095;SDS011;59968;51.084;16.748;2022-10-01T01:08:00;28.60;;;14.70;;
72095;SDS011;59968;51.084;16.748;2022-10-01T01:13:28;26.10;;;12.70;;
72095;SDS011;59968;51.084;16.748;2022-10-01T01:19:37;23.70;;;11.90;;
72095;SDS011;59968;51.084;16.748;2022-10-01T01:21:39;21.20;;;11.60;;
72095;SDS011;59968;51.084;16.748;2022-10-01T01:24:29;24.00;;;13.10;;
72095;SDS011;59968;51.084;16.748;2022-10-01T01:29:50;20.80;;;11.90;;
72095;SDS011;59968;51.084;16.748;2022-10-01T01:33:11;22.40;;;12.10;;
72095;SDS011;59968;51.084;16.748;2022-10-01T01:35:33;19.20;;;10.90;;
72095;SDS011;59968;51.084;16.748;2022-10-01T01:38:08;19.30;;;10.60;;
72095;SDS011;59968;51.084;16.748;2022-10-01T01:40:41;18.10;;;10.00;;
72095;SDS011;59968;51.084;16.748;2022-10-01T01:43:14;18.20;;;10.50;;
72095;SDS011;59968;51.084;16.748;2022-10-01T01:45:51;20.30;;;11.70;;
72095;SDS011;59968;51.084;16.748;2022-10-01T01:48:25;20.30;;;11.20;;
72095;SDS011;59968;51.084;16.748;2022-10-01T01:51:01;20.80;;;11.20;;
72095;SDS011;59968;51.084;16.748;2022-10-01T01:53:31;19.40;;;11.20;;
72095;SDS011;59968;51.084;16.748;2022-10-01T01:55:59;19.90;;;11.30;;
72095;SDS011;59968;51.084;16.748;2022-10-01T01:58:28;20.50;;;11.00;;
72095;SDS011;59968;51.084;16.748;2022-10-01T02:01:00;22.00;;;11.50;;
72095;SDS011;59968;51.084;16.748;2022-10-01T02:03:29;20.00;;;10.80;;
72095;SDS011;59968;51.084;16.748;2022-10-01T02:09:31;20.90;;;10.50;;
72095;SDS011;59968;51.084;16.748;2022-10-01T02:14:40;20.00;;;10.90;;
72095;SDS011;59968;51.084;16.748;2022-10-01T02:17:15;20.30;;;11.10;;
72095;SDS011;59968;51.084;16.748;2022-10-01T02:20:09;19.30;;;10.60;;
72095;SDS011;59968;51.084;16.748;2022-10-01T02:22:53;20.00;;;10.10;;
72095;SDS011;59968;51.084;16.748;2022-10-01T02:25:26;21.40;;;11.60;;
72095;SDS011;59968;51.084;16.748;2022-10-01T02:28:01;19.20;;;10.50;;
72095;SDS011;59968;51.084;16.748;2022-10-01T02:30:34;19.40;;;10.60;;
72095;SDS011;59968;51.084;16.748;2022-10-01T02:33:06;18.30;;;10.40;;
72095;SDS011;59968;51.084;16.748;2022-10-01T02:35:37;17.90;;;9.60;;
72095;SDS011;59968;51.084;16.748;2022-10-01T02:38:08;19.40;;;10.10;;
72095;SDS011;59968;51.084;16.748;2022-10-01T02:40:39;20.00;;;10.20;;
72095;SDS011;59968;51.084;16.748;2022-10-01T02:43:12;18.10;;;10.20;;
72095;SDS011;59968;51.084;16.748;2022-10-01T02:45:49;17.70;;;9.50;;
72095;SDS011;59968;51.084;16.748;2022-10-01T02:48:24;19.30;;;10.40;;
72095;SDS011;59968;51.084;16.748;2022-10-01T02:51:00;17.50;;;9.30;;
72095;SDS011;59968;51.084;16.748;2022-10-01T02:53:45;16.90;;;9.40;;
72095;SDS011;59968;51.084;16.748;2022-10-01T02:56:15;15.80;;;9.00;;
72095;SDS011;59968;51.084;16.748;2022-10-01T02:59:07;15.50;;;8.10;;
72095;SDS011;59968;51.084;16.748;2022-10-01T03:01:35;14.80;;;9.60;;
72095;SDS011;59968;51.084;16.748;2022-10-01T03:04:04;17.40;;;10.10;;
72095;SDS011;59968;51.084;16.748;2022-10-01T03:06:32;18.30;;;10.40;;
72095;SDS011;59968;51.084;16.748;2022-10-01T03:09:02;15.70;;;9.20;;
72095;SDS011;59968;51.084;16.748;2022-10-01T03:11:31;16.20;;;9.40;;
72095;SDS011;59968;51.084;16.748;2022-10-01T03:13:59;15.90;;;9.40;;
72095;SDS011;59968;51.084;16.748;2022-10-01T03:16:28;18.80;;;9.20;;
72095;SDS011;59968;51.084;16.748;2022-10-01T03:18:57;15.90;;;8.80;;
72095;SDS011;59968;51.084;16.748;2022-10-01T03:21:25;17.70;;;9.90;;
72095;SDS011;59968;51.084;16.748;2022-10-01T03:23:58;16.30;;;9.20;;
72095;SDS011;59968;51.084;16.748;2022-10-01T03:26:27;17.20;;;9.30;;
72095;SDS011;59968;51.084;16.748;2022-10-01T03:28:56;17.70;;;10.10;;
72095;SDS011;59968;51.084;16.748;2022-10-01T03:31:24;20.40;;;11.20;;
72095;SDS011;59968;51.084;16.748;2022-10-01T03:33:53;19.20;;;10.40;;
72095;SDS011;59968;51.084;16.748;2022-10-01T03:36:21;18.20;;;10.40;;
72095;SDS011;59968;51.084;16.748;2022-10-01T03:38:51;20.30;;;11.40;;
72095;SDS011;59968;51.084;16.748;2022-10-01T03:41:19;20.10;;;11.30;;
72095;SDS011;59968;51.084;16.748;2022-10-01T03:43:48;20.50;;;10.60;;
72095;SDS011;59968;51.084;16.748;2022-10-01T03:46:16;18.90;;;10.90;;
72095;SDS011;59968;51.084;16.748;2022-10-01T03:48:44;21.30;;;10.30;;
72095;SDS011;59968;51.084;16.748;2022-10-01T03:51:12;19.80;;;10.10;;
72095;SDS011;59968;51.084;16.748;2022-10-01T03:53:46;18.60;;;10.10;;
72095;SDS011;59968;51.084;16.748;2022-10-01T03:56:15;17.50;;;9.80;;
72095;SDS011;59968;51.084;16.748;2022-10-01T03:58:46;17.50;;;9.40;;
72095;SDS011;59968;51.084;16.748;2022-10-01T04:01:15;18.10;;;9.60;;
72095;SDS011;59968;51.084;16.748;2022-10-01T04:03:43;17.20;;;9.30;;
72095;SDS011;59968;51.084;16.748;2022-10-01T04:06:12;18.80;;;9.50;;
72095;SDS011;59968;51.084;16.748;2022-10-01T04:08:40;17.00;;;9.10;;
72095;SDS011;59968;51.084;16.748;2022-10-01T04:11:09;16.60;;;8.70;;
72095;SDS011;59968;51.084;16.748;2022-10-01T04:13:38;19.60;;;10.10;;
72095;SDS011;59968;51.084;16.748;2022-10-01T04:16:06;16.50;;;10.00;;
72095;SDS011;59968;51.084;16.748;2022-10-01T04:18:35;14.90;;;8.70;;
72095;SDS011;59968;51.084;16.748;2022-10-01T04:21:03;14.70;;;8.70;;
72095;SDS011;59968;51.084;16.748;2022-10-01T04:23:32;12.30;;;7.70;;
72095;SDS011;59968;51.084;16.748;2022-10-01T04:26:00;14.90;;;8.00;;
72095;SDS011;59968;51.084;16.748;2022-10-01T04:28:30;14.50;;;8.30;;
72095;SDS011;59968;51.084;16.748;2022-10-01T04:30:59;15.60;;;8.60;;
72095;SDS011;59968;51.084;16.748;2022-10-01T04:33:46;14.60;;;7.40;;
72095;SDS011;59968;51.084;16.748;2022-10-01T04:36:15;14.50;;;7.90;;
72095;SDS011;59968;51.084;16.748;2022-10-01T04:38:44;13.10;;;7.80;;
72095;SDS011;59968;51.084;16.748;2022-10-01T04:41:12;15.40;;;8.20;;
72095;SDS011;59968;51.084;16.748;2022-10-01T04:43:43;15.80;;;8.80;;
72095;SDS011;59968;51.084;16.748;2022-10-01T04:46:11;14.60;;;7.90;;
72095;SDS011;59968;51.084;16.748;2022-10-01T04:48:39;15.90;;;8.80;;
72095;SDS011;59968;51.084;16.748;2022-10-01T04:51:08;16.50;;;8.60;;
72095;SDS011;59968;51.084;16.748;2022-10-01T04:53:36;15.60;;;8.50;;
72095;SDS011;59968;51.084;16.748;2022-10-01T04:56:05;13.10;;;7.60;;
72095;SDS011;59968;51.084;16.748;2022-10-01T04:58:33;12.40;;;6.80;;
72095;SDS011;59968;51.084;16.748;2022-10-01T05:01:02;15.40;;;7.70;;
72095;SDS011;59968;51.084;16.748;2022-10-01T05:03:31;13.40;;;7.60;;
72095;SDS011;59968;51.084;16.748;2022-10-01T05:05:59;13.40;;;8.20;;
72095;SDS011;59968;51.084;16.748;2022-10-01T05:08:27;16.60;;;9.20;;
72095;SDS011;59968;51.084;16.748;2022-10-01T05:10:57;16.30;;;9.10;;
72095;SDS011;59968;51.084;16.748;2022-10-01T05:13:26;16.20;;;8.60;;
72095;SDS011;59968;51.084;16.748;2022-10-01T05:15:57;16.90;;;8.40;;
72095;SDS011;59968;51.084;16.748;2022-10-01T05:18:26;16.50;;;8.90;;
72095;SDS011;59968;51.084;16.748;2022-10-01T05:20:54;16.00;;;9.40;;
72095;SDS011;59968;51.084;16.748;2022-10-01T05:23:22;19.20;;;10.10;;
72095;SDS011;59968;51.084;16.748;2022-10-01T05:25:50;20.00;;;10.50;;
72095;SDS011;59968;51.084;16.748;2022-10-01T05:28:18;21.90;;;12.00;;
72095;SDS011;59968;51.084;16.748;2022-10-01T05:30:49;22.30;;;11.50;;
72095;SDS011;59968;51.084;16.748;2022-10-01T05:33:18;21.70;;;10.80;;
72095;SDS011;59968;51.084;16.748;2022-10-01T05:35:46;21.50;;;10.90;;
72095;SDS011;59968;51.084;16.748;2022-10-01T05:38:14;20.10;;;10.60;;
72095;SDS011;59968;51.084;16.748;2022-10-01T05:40:45;21.00;;;10.70;;
72095;SDS011;59968;51.084;16.748;2022-10-01T05:43:14;19.20;;;11.20;;
72095;SDS011;59968;51.084;16.748;2022-10-01T05:45:42;19.40;;;10.70;;
72095;SDS011;59968;51.084;16.748;2022-10-01T05:48:11;22.00;;;10.80;;
72095;SDS011;59968;51.084;16.748;2022-10-01T05:50:46;25.00;;;11.60;;
72095;SDS011;59968;51.084;16.748;2022-10-01T05:53:20;20.20;;;10.60;;
72095;SDS011;59968;51.084;16.748;2022-10-01T05:55:49;22.00;;;10.60;;
72095;SDS011;59968;51.084;16.748;2022-10-01T05:58:17;21.80;;;11.40;;
72095;SDS011;59968;51.084;16.748;2022-10-01T06:00:46;23.40;;;11.30;;
72095;SDS011;59968;51.084;16.748;2022-10-01T06:03:17;22.90;;;11.40;;
72095;SDS011;59968;51.084;16.748;2022-10-01T06:05:45;22.30;;;11.60;;
72095;SDS011;59968;51.084;16.748;2022-10-01T06:08:15;21.10;;;11.70;;
72095;SDS011;59968;51.084;16.748;2022-10-01T06:10:44;21.20;;;11.80;;
72095;SDS011;59968;51.084;16.748;2022-10-01T06:13:14;21.00;;;11.20;;
72095;SDS011;59968;51.084;16.748;2022-10-01T06:15:50;20.40;;;10.90;;
72095;SDS011;59968;51.084;16.748;2022-10-01T06:18:19;19.30;;;10.90;;
72095;SDS011;59968;51.084;16.748;2022-10-01T06:20:47;20.80;;;10.90;;
72095;SDS011;59968;51.084;16.748;2022-10-01T06:23:16;20.50;;;11.20;;
72095;SDS011;59968;51.084;16.748;2022-10-01T06:25:47;19.40;;;10.60;;
72095;SDS011;59968;51.084;16.748;2022-10-01T06:28:16;19.70;;;11.50;;
72095;SDS011;59968;51.084;16.748;2022-10-01T06:30:51;19.90;;;11.30;;
72095;SDS011;59968;51.084;16.748;2022-10-01T06:33:20;20.40;;;11.40;;
72095;SDS011;59968;51.084;16.748;2022-10-01T06:35:51;20.90;;;12.10;;
72095;SDS011;59968;51.084;16.748;2022-10-01T06:38:21;22.30;;;12.30;;
72095;SDS011;59968;51.084;16.748;2022-10-01T06:43:22;20.40;;;11.10;;
72095;SDS011;59968;51.084;16.748;2022-10-01T06:45:54;20.00;;;11.80;;
72095;SDS011;59968;51.084;16.748;2022-10-01T06:48:23;18.40;;;10.70;;
72095;SDS011;59968;51.084;16.748;2022-10-01T06:50:54;18.70;;;10.60;;
72095;SDS011;59968;51.084;16.748;2022-10-01T06:53:22;19.00;;;10.60;;
72095;SDS011;59968;51.084;16.748;2022-10-01T06:55:51;16.00;;;10.20;;
72095;SDS011;59968;51.084;16.748;2022-10-01T06:58:22;18.40;;;10.70;;
72095;SDS011;59968;51.084;16.748;2022-10-01T07:00:58;18.50;;;10.20;;
72095;SDS011;59968;51.084;16.748;2022-10-01T07:03:29;17.40;;;9.80;;
72095;SDS011;59968;51.084;16.748;2022-10-01T07:06:00;17.20;;;10.60;;
72095;SDS011;59968;51.084;16.748;2022-10-01T07:08:30;18.20;;;10.80;;
72095;SDS011;59968;51.084;16.748;2022-10-01T07:11:00;19.00;;;10.00;;
72095;SDS011;59968;51.084;16.748;2022-10-01T07:13:31;16.20;;;9.50;;
72095;SDS011;59968;51.084;16.748;2022-10-01T07:16:01;17.70;;;9.10;;
72095;SDS011;59968;51.084;16.748;2022-10-01T07:18:31;16.40;;;9.50;;
72095;SDS011;59968;51.084;16.748;2022-10-01T07:21:00;15.70;;;9.70;;
72095;SDS011;59968;51.084;16.748;2022-10-01T07:23:29;15.90;;;9.60;;
72095;SDS011;59968;51.084;16.748;2022-10-01T07:25:58;15.90;;;9.20;;
72095;SDS011;59968;51.084;16.748;2022-10-01T07:28:27;15.20;;;9.00;;
72095;SDS011;59968;51.084;16.748;2022-10-01T07:33:27;15.20;;;9.10;;
72095;SDS011;59968;51.084;16.748;2022-10-01T07:36:00;15.60;;;9.60;;
72095;SDS011;59968;51.084;16.748;2022-10-01T07:38:32;16.30;;;10.00;;
72095;SDS011;59968;51.084;16.748;2022-10-01T07:41:02;16.40;;;9.60;;
72095;SDS011;59968;51.084;16.748;2022-10-01T07:43:31;15.40;;;9.10;;
72095;SDS011;59968;51.084;16.748;2022-10-01T07:46:01;14.10;;;8.50;;
72095;SDS011;59968;51.084;16.748;2022-10-01T07:48:32;15.00;;;9.70;;
72095;SDS011;59968;51.084;16.748;2022-10-01T07:51:00;15.10;;;9.30;;
72095;SDS011;59968;51.084;16.748;2022-10-01T07:53:29;17.10;;;8.90;;
72095;SDS011;59968;51.084;16.748;2022-10-01T07:56:01;12.10;;;8.00;;
72095;SDS011;59968;51.084;16.748;2022-10-01T07:58:30;13.60;;;8.40;;
72095;SDS011;59968;51.084;16.748;2022-10-01T08:01:01;14.60;;;8.80;;
72095;SDS011;59968;51.084;16.748;2022-10-01T08:03:34;11.60;;;6.80;;
72095;SDS011;59968;51.084;16.748;2022-10-01T08:06:03;11.80;;;8.30;;
72095;SDS011;59968;51.084;16.748;2022-10-01T08:08:33;11.60;;;7.20;;
72095;SDS011;59968;51.084;16.748;2022-10-01T08:11:02;10.40;;;7.00;;
72095;SDS011;59968;51.084;16.748;2022-10-01T08:13:31;10.60;;;6.60;;
72095;SDS011;59968;51.084;16.748;2022-10-01T08:16:02;11.40;;;6.90;;
72095;SDS011;59968;51.084;16.748;2022-10-01T08:18:36;9.70;;;6.50;;
72095;SDS011;59968;51.084;16.748;2022-10-01T08:21:05;10.50;;;6.60;;
72095;SDS011;59968;51.084;16.748;2022-10-01T08:23:34;9.30;;;5.80;;
72095;SDS011;59968;51.084;16.748;2022-10-01T08:26:05;10.10;;;6.50;;
72095;SDS011;59968;51.084;16.748;2022-10-01T08:28:40;9.40;;;6.60;;
72095;SDS011;59968;51.084;16.748;2022-10-01T08:31:09;9.90;;;6.60;;
72095;SDS011;59968;51.084;16.748;2022-10-01T08:33:38;10.30;;;6.40;;
72095;SDS011;59968;51.084;16.748;2022-10-01T08:36:06;8.40;;;5.70;;
72095;SDS011;59968;51.084;16.748;2022-10-01T08:38:35;8.00;;;4.80;;
72095;SDS011;59968;51.084;16.748;2022-10-01T08:41:26;8.20;;;5.40;;
72095;SDS011;59968;51.084;16.748;2022-10-01T08:44:04;8.20;;;4.80;;
72095;SDS011;59968;51.084;16.748;2022-10-01T08:46:34;9.60;;;4.80;;
72095;SDS011;59968;51.084;16.748;2022-10-01T08:52:13;8.80;;;5.50;;
72095;SDS011;59968;51.084;16.748;2022-10-01T08:57:17;8.30;;;5.40;;
72095;SDS011;59968;51.084;16.748;2022-10-01T08:59:52;7.00;;;5.00;;
72095;SDS011;59968;51.084;16.748;2022-10-01T09:02:29;7.90;;;5.10;;
72095;SDS011;59968;51.084;16.748;2022-10-01T09:05:02;8.20;;;5.00;;
72095;SDS011;59968;51.084;16.748;2022-10-01T09:08:20;7.70;;;5.00;;
72095;SDS011;59968;51.084;16.748;2022-10-01T09:13:43;7.90;;;4.40;;
72095;SDS011;59968;51.084;16.748;2022-10-01T09:21:55;6.80;;;3.70;;
72095;SDS011;59968;51.084;16.748;2022-10-01T09:27:13;6.90;;;4.10;;
72095;SDS011;59968;51.084;16.748;2022-10-01T09:29:46;9.10;;;4.50;;
72095;SDS011;59968;51.084;16.748;2022-10-01T09:32:23;8.40;;;4.80;;
72095;SDS011;59968;51.084;16.748;2022-10-01T09:34:55;7.50;;;4.30;;
72095;SDS011;59968;51.084;16.748;2022-10-01T09:37:36;7.50;;;4.10;;
72095;SDS011;59968;51.084;16.748;2022-10-01T09:42:55;8.40;;;4.50;;
72095;SDS011;59968;51.084;16.748;2022-10-01T09:45:23;6.00;;;4.10;;
72095;SDS011;59968;51.084;16.748;2022-10-01T09:47:53;6.40;;;4.20;;
72095;SDS011;59968;51.084;16.748;2022-10-01T09:50:29;6.70;;;4.50;;
72095;SDS011;59968;51.084;16.748;2022-10-01T09:53:17;5.40;;;3.90;;
72095;SDS011;59968;51.084;16.748;2022-10-01T09:55:53;6.10;;;3.70;;
72095;SDS011;59968;51.084;16.748;2022-10-01T09:58:26;4.70;;;3.40;;
72095;SDS011;59968;51.084;16.748;2022-10-01T10:00:57;5.50;;;4.00;;
72095;SDS011;59968;51.084;16.748;2022-10-01T10:03:30;6.60;;;3.40;;
72095;SDS011;59968;51.084;16.748;2022-10-01T10:06:00;5.30;;;3.20;;
72095;SDS011;59968;51.084;16.748;2022-10-01T10:08:30;6.10;;;3.50;;
72095;SDS011;59968;51.084;16.748;2022-10-01T10:11:07;5.30;;;3.70;;
72095;SDS011;59968;51.084;16.748;2022-10-01T10:13:41;5.50;;;3.40;;
72095;SDS011;59968;51.084;16.748;2022-10-01T10:16:33;4.20;;;3.10;;
72095;SDS011;59968;51.084;16.748;2022-10-01T10:19:14;5.40;;;3.70;;
72095;SDS011;59968;51.084;16.748;2022-10-01T10:21:52;5.20;;;3.40;;
72095;SDS011;59968;51.084;16.748;2022-10-01T10:24:29;5.60;;;3.50;;
72095;SDS011;59968;51.084;16.748;2022-10-01T10:27:02;4.90;;;3.40;;
72095;SDS011;59968;51.084;16.748;2022-10-01T10:29:34;4.60;;;3.50;;
72095;SDS011;59968;51.084;16.748;2022-10-01T10:33:05;4.50;;;3.30;;
72095;SDS011;59968;51.084;16.748;2022-10-01T10:35:22;4.70;;;3.30;;
72095;SDS011;59968;51.084;16.748;2022-10-01T10:37:53;5.10;;;3.60;;
72095;SDS011;59968;51.084;16.748;2022-10-01T10:40:28;5.40;;;3.20;;
72095;SDS011;59968;51.084;16.748;2022-10-01T10:43:12;5.30;;;3.30;;
72095;SDS011;59968;51.084;16.748;2022-10-01T10:45:50;3.80;;;2.30;;
72095;SDS011;59968;51.084;16.748;2022-10-01T10:48:30;3.40;;;2.70;;
72095;SDS011;59968;51.084;16.748;2022-10-01T10:51:04;4.20;;;2.50;;
72095;SDS011;59968;51.084;16.748;2022-10-01T10:53:43;4.50;;;2.70;;
72095;SDS011;59968;51.084;16.748;2022-10-01T10:56:21;4.30;;;2.30;;
72095;SDS011;59968;51.084;16.748;2022-10-01T10:58:52;3.20;;;2.30;;
72095;SDS011;59968;51.084;16.748;2022-10-01T11:01:27;4.10;;;2.10;;
72095;SDS011;59968;51.084;16.748;2022-10-01T11:03:58;3.20;;;2.10;;
72095;SDS011;59968;51.084;16.748;2022-10-01T11:06:30;3.50;;;2.20;;
72095;SDS011;59968;51.084;16.748;2022-10-01T11:09:04;3.10;;;2.30;;
72095;SDS011;59968;51.084;16.748;2022-10-01T11:14:12;3.40;;;2.40;;
72095;SDS011;59968;51.084;16.748;2022-10-01T11:20:14;4.10;;;2.60;;
72095;SDS011;59968;51.084;16.748;2022-10-01T11:28:36;5.20;;;2.90;;
72095;SDS011;59968;51.084;16.748;2022-10-01T11:34:01;5.50;;;2.90;;
72095;SDS011;59968;51.084;16.748;2022-10-01T11:39:33;4.80;;;2.50;;
72095;SDS011;59968;51.084;16.748;2022-10-01T11:42:10;4.10;;;2.90;;
72095;SDS011;59968;51.084;16.748;2022-10-01T11:44:51;4.70;;;2.60;;
72095;SDS011;59968;51.084;16.748;2022-10-01T11:47:31;3.50;;;2.60;;
72095;SDS011;59968;51.084;16.748;2022-10-01T11:50:05;3.90;;;2.80;;
72095;SDS011;59968;51.084;16.748;2022-10-01T11:55:25;4.10;;;2.90;;
72095;SDS011;59968;51.084;16.748;2022-10-01T11:58:26;6.10;;;2.90;;
72095;SDS011;59968;51.084;16.748;2022-10-01T12:07:14;4.20;;;2.80;;
72095;SDS011;59968;51.084;16.748;2022-10-01T12:10:19;4.50;;;2.60;;
72095;SDS011;59968;51.084;16.748;2022-10-01T12:13:05;4.00;;;2.30;;
72095;SDS011;59968;51.084;16.748;2022-10-01T12:15:55;5.10;;;2.50;;
72095;SDS011;59968;51.084;16.748;2022-10-01T12:21:21;4.10;;;2.60;;
72095;SDS011;59968;51.084;16.748;2022-10-01T12:23:59;4.50;;;2.90;;
72095;SDS011;59968;51.084;16.748;2022-10-01T12:41:01;4.00;;;2.50;;
72095;SDS011;59968;51.084;16.748;2022-10-01T12:55:05;5.70;;;3.30;;
72095;SDS011;59968;51.084;16.748;2022-10-01T13:04:20;6.50;;;3.10;;
72095;SDS011;59968;51.084;16.748;2022-10-01T13:14:46;4.10;;;2.90;;
72095;SDS011;59968;51.084;16.748;2022-10-01T13:17:24;2.80;;;2.20;;
72095;SDS011;59968;51.084;16.748;2022-10-01T13:20:04;4.40;;;3.00;;
72095;SDS011;59968;51.084;16.748;2022-10-01T13:25:44;4.80;;;2.90;;
72095;SDS011;59968;51.084;16.748;2022-10-01T13:28:16;4.80;;;2.80;;
72095;SDS011;59968;51.084;16.748;2022-10-01T13:30:57;4.70;;;3.00;;
72095;SDS011;59968;51.084;16.748;2022-10-01T13:33:29;3.90;;;2.50;;
72095;SDS011;59968;51.084;16.748;2022-10-01T13:36:04;3.70;;;2.60;;
72095;SDS011;59968;51.084;16.748;2022-10-01T13:38:38;3.80;;;2.70;;
72095;SDS011;59968;51.084;16.748;2022-10-01T13:41:20;3.80;;;2.30;;
72095;SDS011;59968;51.084;16.748;2022-10-01T13:43:55;4.60;;;2.60;;
72095;SDS011;59968;51.084;16.748;2022-10-01T13:46:31;4.20;;;2.60;;
72095;SDS011;59968;51.084;16.748;2022-10-01T13:49:06;5.90;;;2.70;;
72095;SDS011;59968;51.084;16.748;2022-10-01T13:51:45;3.80;;;2.60;;
72095;SDS011;59968;51.084;16.748;2022-10-01T13:54:59;3.60;;;2.60;;
72095;SDS011;59968;51.084;16.748;2022-10-01T13:57:37;3.20;;;2.50;;
72095;SDS011;59968;51.084;16.748;2022-10-01T14:02:43;4.50;;;2.80;;
72095;SDS011;59968;51.084;16.748;2022-10-01T14:05:38;5.20;;;3.10;;
72095;SDS011;59968;51.084;16.748;2022-10-01T14:10:52;4.80;;;3.10;;
72095;SDS011;59968;51.084;16.748;2022-10-01T14:13:43;5.00;;;3.20;;
72095;SDS011;59968;51.084;16.748;2022-10-01T14:16:40;6.90;;;3.50;;
72095;SDS011;59968;51.084;16.748;2022-10-01T14:19:22;6.60;;;3.70;;
72095;SDS011;59968;51.084;16.748;2022-10-01T14:27:57;4.40;;;2.50;;
72095;SDS011;59968;51.084;16.748;2022-10-01T14:30:49;4.90;;;3.00;;
72095;SDS011;59968;51.084;16.748;2022-10-01T14:39:58;4.60;;;2.60;;
72095;SDS011;59968;51.084;16.748;2022-10-01T14:42:28;3.90;;;2.30;;
72095;SDS011;59968;51.084;16.748;2022-10-01T14:44:57;3.60;;;1.80;;
72095;SDS011;59968;51.084;16.748;2022-10-01T14:47:26;3.10;;;1.90;;
72095;SDS011;59968;51.084;16.748;2022-10-01T14:50:14;4.30;;;2.30;;
72095;SDS011;59968;51.084;16.748;2022-10-01T14:52:48;3.40;;;2.00;;
72095;SDS011;59968;51.084;16.748;2022-10-01T14:55:21;4.70;;;2.00;;
72095;SDS011;59968;51.084;16.748;2022-10-01T14:57:53;4.80;;;2.30;;
72095;SDS011;59968;51.084;16.748;2022-10-01T15:00:28;4.80;;;2.10;;
72095;SDS011;59968;51.084;16.748;2022-10-01T15:03:11;6.80;;;2.50;;
72095;SDS011;59968;51.084;16.748;2022-10-01T15:05:50;4.70;;;2.70;;
72095;SDS011;59968;51.084;16.748;2022-10-01T15:08:38;4.20;;;2.60;;
72095;SDS011;59968;51.084;16.748;2022-10-01T15:14:04;5.20;;;2.20;;
72095;SDS011;59968;51.084;16.748;2022-10-01T15:16:46;3.70;;;2.30;;
72095;SDS011;59968;51.084;16.748;2022-10-01T15:19:44;4.80;;;3.00;;
72095;SDS011;59968;51.084;16.748;2022-10-01T15:22:25;4.50;;;2.50;;
72095;SDS011;59968;51.084;16.748;2022-10-01T15:25:04;3.80;;;2.00;;
72095;SDS011;59968;51.084;16.748;2022-10-01T15:27:34;3.10;;;1.80;;
72095;SDS011;59968;51.084;16.748;2022-10-01T15:30:15;3.30;;;1.70;;
72095;SDS011;59968;51.084;16.748;2022-10-01T15:32:50;4.10;;;2.40;;
72095;SDS011;59968;51.084;16.748;2022-10-01T15:35:23;3.20;;;1.70;;
72095;SDS011;59968;51.084;16.748;2022-10-01T15:37:57;2.30;;;1.50;;
72095;SDS011;59968;51.084;16.748;2022-10-01T15:40:31;2.80;;;1.20;;
72095;SDS011;59968;51.084;16.748;2022-10-01T15:43:24;1.80;;;1.00;;
72095;SDS011;59968;51.084;16.748;2022-10-01T15:49:11;2.80;;;1.20;;
72095;SDS011;59968;51.084;16.748;2022-10-01T15:51:58;2.60;;;1.40;;
72095;SDS011;59968;51.084;16.748;2022-10-01T15:54:57;2.50;;;1.40;;
72095;SDS011;59968;51.084;16.748;2022-10-01T15:57:33;2.70;;;1.40;;
72095;SDS011;59968;51.084;16.748;2022-10-01T16:00:20;4.20;;;1.60;;
72095;SDS011;59968;51.084;16.748;2022-10-01T16:02:53;4.40;;;1.80;;
72095;SDS011;59968;51.084;16.748;2022-10-01T16:05:32;3.00;;;1.50;;
72095;SDS011;59968;51.084;16.748;2022-10-01T16:08:14;4.40;;;2.50;;
72095;SDS011;59968;51.084;16.748;2022-10-01T16:13:46;6.90;;;2.50;;
72095;SDS011;59968;51.084;16.748;2022-10-01T16:16:23;5.70;;;2.60;;
72095;SDS011;59968;51.084;16.748;2022-10-01T16:24:55;5.30;;;2.50;;
72095;SDS011;59968;51.084;16.748;2022-10-01T16:27:45;5.00;;;2.90;;
72095;SDS011;59968;51.084;16.748;2022-10-01T16:30:28;5.60;;;3.10;;
72095;SDS011;59968;51.084;16.748;2022-10-01T16:33:03;4.10;;;2.20;;
72095;SDS011;59968;51.084;16.748;2022-10-01T16:35:41;6.30;;;3.30;;
72095;SDS011;59968;51.084;16.748;2022-10-01T16:38:23;4.40;;;2.50;;
72095;SDS011;59968;51.084;16.748;2022-10-01T16:41:01;5.40;;;3.00;;
72095;SDS011;59968;51.084;16.748;2022-10-01T16:43:39;4.60;;;2.50;;
72095;SDS011;59968;51.084;16.748;2022-10-01T16:46:11;5.00;;;3.20;;
72095;SDS011;59968;51.084;16.748;2022-10-01T16:48:42;7.30;;;3.70;;
72095;SDS011;59968;51.084;16.748;2022-10-01T16:51:16;7.80;;;3.50;;
72095;SDS011;59968;51.084;16.748;2022-10-01T16:53:48;8.30;;;5.00;;
72095;SDS011;59968;51.084;16.748;2022-10-01T16:56:20;8.40;;;4.30;;
72095;SDS011;59968;51.084;16.748;2022-10-01T16:58:56;9.90;;;5.80;;
72095;SDS011;59968;51.084;16.748;2022-10-01T17:01:44;8.90;;;5.70;;
72095;SDS011;59968;51.084;16.748;2022-10-01T17:04:26;10.10;;;5.10;;
72095;SDS011;59968;51.084;16.748;2022-10-01T17:07:03;8.10;;;4.60;;
72095;SDS011;59968;51.084;16.748;2022-10-01T17:09:39;7.50;;;4.40;;
72095;SDS011;59968;51.084;16.748;2022-10-01T17:12:10;7.30;;;3.60;;
72095;SDS011;59968;51.084;16.748;2022-10-01T17:14:47;6.00;;;2.90;;
72095;SDS011;59968;51.084;16.748;2022-10-01T17:17:20;6.40;;;3.10;;
72095;SDS011;59968;51.084;16.748;2022-10-01T17:19:52;7.10;;;3.50;;
72095;SDS011;59968;51.084;16.748;2022-10-01T17:22:30;6.50;;;3.30;;
72095;SDS011;59968;51.084;16.748;2022-10-01T17:25:05;5.70;;;2.80;;
72095;SDS011;59968;51.084;16.748;2022-10-01T17:27:36;5.30;;;3.00;;
72095;SDS011;59968;51.084;16.748;2022-10-01T17:30:09;5.70;;;3.20;;
72095;SDS011;59968;51.084;16.748;2022-10-01T17:32:47;5.50;;;2.80;;